Time;durP1;ratioP1;P1;durP2;ratioP2;P2;SDS_P1;SDS_P2;PMS_P1;PMS_P2;Temp;Humidity;BMP_temperature;BMP_pressure;BME280_temperature;BME280_humidity;BME280_pressure;Samples;Min_cycle;Max_cycle;Signal;HPM_P1;HPM_P2
2023/09/16 00:02:22;;;;;;;5.22;2.67;;;13.10;99.90;;;;;;5010310;28;20034;-51
2023/09/16 00:04:48;;;;;;;6.38;2.50;;;13.10;99.90;;;;;;5015640;28;20029;-48
2023/09/16 00:07:14;;;;;;;3.45;2.50;;;13.10;99.90;;;;;;5016306;28;20041;-47
2023/09/16 00:09:40;;;;;;;2.72;2.20;;;13.00;99.90;;;;;;5023815;28;20025;-48
2023/09/16 00:12:06;;;;;;;3.28;2.30;;;13.00;99.90;;;;;;5020188;28;20458;-50
2023/09/16 00:14:31;;;;;;;5.13;2.42;;;13.00;99.90;;;;;;5017477;28;20060;-47
2023/09/16 00:17:00;;;;;;;5.10;2.90;;;13.00;99.90;;;;;;5017591;28;20295;-48
2023/09/16 00:19:26;;;;;;;4.78;2.60;;;12.90;99.90;;;;;;5019967;28;20022;-49
2023/09/16 00:21:52;;;;;;;5.30;2.40;;;12.90;99.90;;;;;;5018825;28;20460;-48
2023/09/16 00:24:18;;;;;;;3.42;2.30;;;12.90;99.90;;;;;;5012653;28;20053;-50
2023/09/16 00:26:43;;;;;;;3.95;2.55;;;12.90;99.90;;;;;;5019112;28;20034;-50
2023/09/16 00:29:09;;;;;;;6.22;2.63;;;12.80;99.90;;;;;;5009942;28;20022;-49
2023/09/16 00:31:36;;;;;;;6.13;2.80;;;12.80;99.90;;;;;;5022058;28;20044;-50
2023/09/16 00:34:02;;;;;;;3.65;2.40;;;12.80;99.90;;;;;;5027319;28;20493;-47
2023/09/16 00:36:28;;;;;;;4.30;2.63;;;12.70;99.90;;;;;;5015670;28;20041;-49
2023/09/16 00:38:54;;;;;;;4.38;2.63;;;12.70;99.90;;;;;;5015434;28;20412;-48
2023/09/16 00:41:20;;;;;;;3.50;2.28;;;12.80;99.90;;;;;;5015275;28;20508;-47
2023/09/16 00:43:45;;;;;;;5.72;3.22;;;12.70;99.90;;;;;;5013563;28;20105;-49
2023/09/16 00:46:11;;;;;;;4.57;2.92;;;12.70;99.90;;;;;;5021463;28;20056;-49
2023/09/16 00:48:37;;;;;;;4.85;2.65;;;12.70;99.90;;;;;;5019315;28;20093;-45
2023/09/16 00:51:05;;;;;;;4.72;2.08;;;12.60;99.90;;;;;;5025279;28;20120;-47
2023/09/16 00:53:30;;;;;;;5.45;2.90;;;12.70;99.90;;;;;;5019308;28;20393;-50
2023/09/16 00:55:56;;;;;;;4.90;2.80;;;12.60;99.90;;;;;;5015001;28;20096;-46
2023/09/16 00:58:22;;;;;;;5.80;3.15;;;12.60;99.90;;;;;;5015848;28;20026;-51
2023/09/16 01:00:48;;;;;;;3.63;2.95;;;12.50;99.90;;;;;;5021260;28;20036;-46
2023/09/16 01:03:14;;;;;;;5.68;2.58;;;12.60;99.90;;;;;;5016588;28;20030;-45
2023/09/16 01:05:40;;;;;;;4.53;2.88;;;12.50;99.90;;;;;;5016459;28;20061;-48
2023/09/16 01:08:07;;;;;;;3.78;2.40;;;12.50;99.90;;;;;;5018895;28;20057;-48
2023/09/16 01:10:32;;;;;;;3.25;2.08;;;12.50;99.90;;;;;;5011062;28;20477;-47
2023/09/16 01:12:58;;;;;;;6.00;3.30;;;12.40;99.90;;;;;;5011201;28;20093;-56
2023/09/16 01:15:31;;;;;;;5.80;2.70;;;12.40;99.90;;;;;;5013769;28;20045;-57
2023/09/16 01:18:14;;;;;;;5.82;2.53;;;12.40;99.90;;;;;;5021228;28;20083;-55
2023/09/16 01:20:40;;;;;;;4.53;2.92;;;12.40;99.90;;;;;;5027787;28;20609;-57
2023/09/16 01:23:07;;;;;;;3.65;2.58;;;12.30;99.90;;;;;;5010944;28;20810;-61
2023/09/16 01:25:33;;;;;;;5.75;2.83;;;12.30;99.90;;;;;;5013596;28;20057;-60
2023/09/16 01:27:58;;;;;;;5.90;2.75;;;12.30;99.90;;;;;;5012565;28;20037;-60
2023/09/16 01:30:26;;;;;;;7.38;2.83;;;12.30;99.90;;;;;;5015949;28;20029;-60
2023/09/16 01:33:05;;;;;;;5.78;2.78;;;12.20;99.90;;;;;;5026346;28;20063;-59
2023/09/16 01:35:37;;;;;;;4.40;2.70;;;12.20;99.90;;;;;;5022038;28;20444;-63
2023/09/16 01:38:05;;;;;;;4.32;2.60;;;12.20;99.90;;;;;;5018203;28;20496;-61
2023/09/16 01:40:31;;;;;;;4.93;2.65;;;12.10;99.90;;;;;;5013325;28;20100;-61
2023/09/16 01:42:58;;;;;;;3.65;2.55;;;12.10;99.90;;;;;;5006041;28;20057;-59
2023/09/16 01:45:24;;;;;;;4.50;2.83;;;12.10;99.90;;;;;;5012916;28;20040;-61
2023/09/16 01:47:50;;;;;;;2.67;2.03;;;12.10;99.90;;;;;;5009388;28;20112;-60
2023/09/16 01:50:15;;;;;;;4.32;2.47;;;12.10;99.90;;;;;;5013834;28;20497;-61
2023/09/16 01:52:41;;;;;;;4.65;2.67;;;12.10;99.90;;;;;;5019865;28;20052;-61
2023/09/16 01:55:07;;;;;;;4.13;2.30;;;12.10;99.90;;;;;;5015782;28;20069;-61
2023/09/16 01:57:33;;;;;;;6.22;2.55;;;12.10;99.90;;;;;;5014579;28;20642;-61
2023/09/16 01:59:58;;;;;;;5.47;2.88;;;12.10;99.90;;;;;;5018339;28;20101;-61
2023/09/16 02:02:24;;;;;;;5.15;2.90;;;12.00;99.90;;;;;;5019941;28;20575;-60
2023/09/16 02:04:49;;;;;;;5.07;2.03;;;12.00;99.90;;;;;;5012900;28;20046;-60
2023/09/16 02:07:15;;;;;;;5.53;2.78;;;12.00;99.90;;;;;;5012574;28;20045;-61
2023/09/16 02:09:41;;;;;;;4.47;2.30;;;12.00;99.90;;;;;;5015594;28;20111;-60
2023/09/16 02:12:07;;;;;;;4.65;2.78;;;12.00;99.90;;;;;;5011921;28;20596;-60
2023/09/16 02:14:37;;;;;;;4.53;2.60;;;11.90;99.90;;;;;;5009633;28;20029;-60
2023/09/16 02:17:03;;;;;;;4.25;2.50;;;11.90;99.90;;;;;;5014200;28;20025;-61
2023/09/16 02:19:29;;;;;;;4.53;2.72;;;11.90;99.90;;;;;;5013500;28;20564;-60
2023/09/16 02:21:54;;;;;;;4.15;2.42;;;11.90;99.90;;;;;;5017794;28;20018;-60
2023/09/16 02:24:20;;;;;;;4.07;2.65;;;11.90;99.90;;;;;;5011750;28;20038;-60
2023/09/16 02:26:45;;;;;;;4.93;2.58;;;11.80;99.90;;;;;;5013491;28;20061;-60
2023/09/16 02:29:11;;;;;;;4.00;2.42;;;11.80;99.90;;;;;;5014333;28;20112;-61
2023/09/16 02:31:36;;;;;;;5.35;2.92;;;11.80;99.90;;;;;;5010453;28;20112;-61
2023/09/16 02:34:02;;;;;;;4.38;2.30;;;11.80;99.90;;;;;;5015052;28;20096;-60
2023/09/16 02:36:28;;;;;;;5.30;2.78;;;11.70;99.90;;;;;;5012585;28;20021;-60
2023/09/16 02:38:53;;;;;;;4.90;2.42;;;11.70;99.90;;;;;;5021548;28;20022;-56
2023/09/16 02:41:19;;;;;;;4.90;2.53;;;11.70;99.90;;;;;;5015980;28;20025;-48
2023/09/16 02:43:45;;;;;;;7.13;2.60;;;11.70;99.90;;;;;;5014045;28;20057;-65
2023/09/16 02:46:11;;;;;;;3.47;2.25;;;11.70;99.90;;;;;;5013429;28;20025;-65
2023/09/16 02:48:36;;;;;;;3.85;2.47;;;11.70;99.90;;;;;;5015650;28;20497;-64
2023/09/16 02:51:03;;;;;;;4.40;2.80;;;11.70;99.90;;;;;;5015599;28;20021;-63
2023/09/16 02:53:29;;;;;;;5.97;2.85;;;11.70;99.90;;;;;;5021528;28;20041;-65
2023/09/16 02:55:55;;;;;;;5.53;3.08;;;11.70;99.90;;;;;;5022600;28;20469;-64
2023/09/16 02:58:21;;;;;;;4.07;2.92;;;11.70;99.90;;;;;;5025126;28;20029;-64
2023/09/16 03:00:47;;;;;;;4.53;2.63;;;11.70;99.90;;;;;;5019414;28;20029;-64
2023/09/16 03:03:13;;;;;;;3.78;2.60;;;11.60;99.90;;;;;;5017219;28;20096;-64
2023/09/16 03:05:40;;;;;;;4.53;2.80;;;11.60;99.90;;;;;;5018338;28;20021;-66
2023/09/16 03:08:06;;;;;;;7.38;2.75;;;11.60;99.90;;;;;;5013589;28;20025;-64
2023/09/16 03:10:34;;;;;;;5.40;2.75;;;11.60;99.90;;;;;;5017146;28;20029;-64
2023/09/16 03:13:00;;;;;;;4.63;2.20;;;11.60;99.90;;;;;;5019049;28;20489;-63
2023/09/16 03:15:25;;;;;;;4.88;2.97;;;11.50;99.90;;;;;;5018529;28;20049;-64
2023/09/16 03:17:51;;;;;;;4.18;2.70;;;11.50;99.90;;;;;;5021578;28;20397;-64
2023/09/16 03:20:16;;;;;;;6.57;3.03;;;11.50;99.90;;;;;;5025539;28;20036;-63
2023/09/16 03:22:42;;;;;;;6.07;2.78;;;11.50;99.90;;;;;;5027106;28;20113;-60
2023/09/16 03:25:07;;;;;;;6.82;2.53;;;11.50;99.90;;;;;;5024946;28;20032;-65
2023/09/16 03:27:33;;;;;;;3.75;2.72;;;11.40;99.90;;;;;;5022456;28;20030;-64
2023/09/16 03:29:59;;;;;;;4.47;2.35;;;11.40;99.90;;;;;;5026849;28;20041;-64
2023/09/16 03:32:27;;;;;;;6.13;2.90;;;11.40;99.90;;;;;;5022559;28;20045;-65
2023/09/16 03:34:53;;;;;;;4.78;3.03;;;11.40;99.90;;;;;;5026255;28;20029;-65
2023/09/16 03:37:18;;;;;;;6.75;2.92;;;11.30;99.90;;;;;;5022806;28;20029;-63
2023/09/16 03:39:44;;;;;;;7.75;3.45;;;11.30;99.90;;;;;;5024838;28;20029;-65
2023/09/16 03:42:09;;;;;;;5.68;2.70;;;11.30;99.90;;;;;;5022803;28;20037;-64
2023/09/16 03:44:35;;;;;;;6.00;3.13;;;11.20;99.90;;;;;;5022951;28;20038;-65
2023/09/16 03:47:02;;;;;;;4.70;2.70;;;11.30;99.90;;;;;;5019621;28;20085;-65
2023/09/16 03:49:27;;;;;;;5.03;2.33;;;11.20;99.90;;;;;;5025534;28;20047;-65
2023/09/16 03:51:53;;;;;;;5.88;2.95;;;11.20;99.90;;;;;;5019625;28;20432;-64
2023/09/16 03:54:18;;;;;;;4.43;2.80;;;11.20;99.90;;;;;;5016921;28;20024;-65
2023/09/16 03:56:44;;;;;;;4.40;2.70;;;11.10;99.90;;;;;;5018311;28;20032;-65
2023/09/16 03:59:09;;;;;;;4.95;2.70;;;11.10;99.90;;;;;;5018382;28;20083;-65
2023/09/16 04:01:35;;;;;;;5.60;3.00;;;11.10;99.90;;;;;;5016837;28;20033;-64
2023/09/16 04:04:00;;;;;;;4.97;2.85;;;11.00;99.90;;;;;;5020549;28;20029;-65
2023/09/16 04:06:26;;;;;;;5.53;2.08;;;11.00;99.90;;;;;;5017298;28;20061;-63
2023/09/16 04:08:52;;;;;;;5.20;2.80;;;11.00;99.90;;;;;;5016147;28;20018;-64
2023/09/16 04:11:17;;;;;;;4.65;2.83;;;11.00;99.90;;;;;;5019607;28;20033;-64
2023/09/16 04:13:43;;;;;;;4.15;2.92;;;11.00;99.90;;;;;;5013586;28;20021;-65
2023/09/16 04:16:09;;;;;;;6.43;3.03;;;11.00;99.90;;;;;;5012928;28;20030;-65
2023/09/16 04:18:34;;;;;;;4.90;2.83;;;11.00;99.90;;;;;;5013023;28;20026;-64
2023/09/16 04:21:02;;;;;;;5.07;3.20;;;10.90;99.90;;;;;;5010788;28;20032;-63
2023/09/16 04:23:29;;;;;;;6.25;2.80;;;10.90;99.90;;;;;;5017784;28;20613;-63
2023/09/16 04:26:00;;;;;;;4.75;3.38;;;10.90;99.90;;;;;;5016951;28;20040;-65
2023/09/16 04:28:25;;;;;;;7.50;3.80;;;10.90;99.90;;;;;;5015176;28;20017;-64
2023/09/16 04:30:52;;;;;;;4.68;3.08;;;10.80;99.90;;;;;;5014246;28;20018;-65
2023/09/16 04:33:19;;;;;;;6.10;3.13;;;10.80;99.90;;;;;;5016054;28;20044;-64
2023/09/16 04:35:45;;;;;;;6.22;3.20;;;10.80;99.90;;;;;;5021660;28;20029;-64
2023/09/16 04:38:12;;;;;;;13.50;4.22;;;10.80;99.90;;;;;;5017643;28;20030;-64
2023/09/16 04:40:38;;;;;;;9.93;3.45;;;10.90;99.90;;;;;;5013841;28;20204;-64
2023/09/16 04:43:04;;;;;;;7.75;3.53;;;10.80;99.90;;;;;;5017723;28;20025;-63
2023/09/16 04:45:31;;;;;;;7.95;3.40;;;10.80;99.90;;;;;;5017566;28;20025;-64
2023/09/16 04:47:57;;;;;;;6.25;3.35;;;10.90;99.90;;;;;;5023418;28;20017;-65
2023/09/16 04:50:23;;;;;;;4.63;3.08;;;10.90;99.90;;;;;;5013531;28;20681;-64
2023/09/16 04:52:49;;;;;;;7.07;3.58;;;10.90;99.90;;;;;;5014030;28;20021;-63
2023/09/16 04:55:17;;;;;;;7.13;3.17;;;10.90;99.90;;;;;;5016795;28;20039;-65
2023/09/16 04:57:42;;;;;;;5.55;3.53;;;10.90;99.90;;;;;;5013384;28;20455;-65
2023/09/16 05:00:08;;;;;;;7.43;3.95;;;11.00;99.90;;;;;;5016457;28;20101;-64
2023/09/16 05:02:34;;;;;;;7.25;3.20;;;11.00;99.90;;;;;;5010066;28;20119;-63
2023/09/16 05:05:00;;;;;;;4.50;2.97;;;11.00;99.90;;;;;;5012775;28;20029;-65
2023/09/16 05:07:26;;;;;;;6.57;3.30;;;11.00;99.90;;;;;;5015090;28;20076;-66
2023/09/16 05:09:52;;;;;;;5.78;3.15;;;11.10;99.90;;;;;;5015979;28;20018;-65
2023/09/16 05:12:17;;;;;;;8.55;3.30;;;11.10;99.90;;;;;;5013216;28;20117;-64
2023/09/16 05:14:43;;;;;;;8.63;3.42;;;11.10;99.90;;;;;;5011330;28;20075;-64
2023/09/16 05:17:08;;;;;;;6.70;3.50;;;11.20;99.90;;;;;;5013723;28;20104;-64
2023/09/16 05:19:34;;;;;;;7.32;3.95;;;11.30;99.90;;;;;;5015360;28;20069;-66
2023/09/16 05:21:59;;;;;;;6.35;3.35;;;11.30;99.90;;;;;;5019230;28;20044;-65
2023/09/16 05:24:25;;;;;;;5.70;3.35;;;11.40;99.90;;;;;;5007949;28;20037;-64
2023/09/16 05:26:50;;;;;;;13.75;3.67;;;11.40;99.90;;;;;;5015507;28;20029;-63
2023/09/16 05:29:16;;;;;;;4.97;3.40;;;11.50;99.90;;;;;;5013977;28;20026;-64
2023/09/16 05:31:41;;;;;;;5.53;3.22;;;11.60;99.90;;;;;;5022020;28;20042;-64
2023/09/16 05:34:07;;;;;;;5.15;2.88;;;11.70;99.90;;;;;;5018759;28;20392;-64
2023/09/16 05:36:33;;;;;;;5.90;3.33;;;12.40;99.90;;;;;;5020164;28;20101;-64
2023/09/16 05:38:58;;;;;;;5.07;3.08;;;13.30;99.80;;;;;;5020202;28;20021;-64
2023/09/16 05:41:24;;;;;;;8.45;3.40;;;14.30;94.20;;;;;;5020363;28;20033;-65
2023/09/16 05:43:49;;;;;;;6.95;2.92;;;15.00;91.30;;;;;;5017581;28;20108;-64
2023/09/16 05:46:15;;;;;;;7.72;2.80;;;15.60;89.80;;;;;;5025984;28;20032;-64
2023/09/16 05:48:41;;;;;;;7.30;3.35;;;16.10;84.50;;;;;;5016204;28;20025;-64
2023/09/16 05:51:08;;;;;;;3.95;2.58;;;16.40;80.10;;;;;;5017278;28;20035;-65
2023/09/16 05:53:35;;;;;;;3.97;2.60;;;16.70;80.20;;;;;;5015047;28;20264;-64
2023/09/16 05:56:04;;;;;;;4.65;2.50;;;17.20;77.90;;;;;;5014065;28;20026;-64
2023/09/16 05:58:30;;;;;;;7.80;3.05;;;17.60;78.40;;;;;;5014509;28;20370;-64
2023/09/16 06:00:59;;;;;;;4.97;2.58;;;17.70;74.10;;;;;;5016031;28;20113;-64
2023/09/16 06:03:25;;;;;;;6.88;2.72;;;17.90;73.60;;;;;;5015997;28;20088;-64
2023/09/16 06:05:57;;;;;;;5.18;3.00;;;18.30;71.30;;;;;;5017972;28;20435;-64
2023/09/16 06:08:23;;;;;;;5.35;2.92;;;18.90;70.20;;;;;;5011458;28;20036;-64
2023/09/16 06:10:48;;;;;;;4.30;2.78;;;19.50;66.20;;;;;;5014039;28;20398;-63
2023/09/16 06:13:13;;;;;;;5.53;2.75;;;20.10;69.10;;;;;;5015500;28;20025;-64
2023/09/16 06:15:39;;;;;;;2.75;2.13;;;20.10;66.80;;;;;;5014699;28;20045;-64
2023/09/16 06:18:06;;;;;;;3.95;2.20;;;20.60;67.20;;;;;;5017193;28;20031;-64
2023/09/16 06:20:31;;;;;;;5.05;2.72;;;21.20;67.70;;;;;;5013646;28;20021;-64
2023/09/16 06:23:02;;;;;;;4.88;2.67;;;21.60;66.10;;;;;;5016821;28;20116;-64
2023/09/16 06:25:27;;;;;;;3.63;2.38;;;22.00;63.50;;;;;;5018967;28;20683;-63
2023/09/16 06:27:53;;;;;;;5.43;3.03;;;22.00;56.80;;;;;;5012428;28;20028;-63
2023/09/16 06:30:18;;;;;;;4.65;2.40;;;22.10;61.60;;;;;;5013776;28;20045;-63
2023/09/16 06:32:44;;;;;;;5.25;3.13;;;22.50;59.00;;;;;;5015213;28;20048;-64
2023/09/16 06:35:10;;;;;;;5.25;2.50;;;22.70;57.50;;;;;;5011552;28;20040;-63
2023/09/16 06:37:35;;;;;;;4.80;3.17;;;22.90;57.90;;;;;;5010651;28;20497;-63
2023/09/16 06:40:00;;;;;;;4.80;2.80;;;23.50;54.00;;;;;;5016662;28;20025;-63
2023/09/16 06:42:26;;;;;;;5.18;2.63;;;23.40;55.40;;;;;;5021231;28;20079;-63
2023/09/16 06:44:54;;;;;;;5.63;2.70;;;23.90;51.80;;;;;;5018609;28;20404;-63
2023/09/16 06:47:26;;;;;;;3.65;2.50;;;23.00;53.00;;;;;;5019425;28;20075;-63
2023/09/16 06:49:52;;;;;;;4.85;2.80;;;22.70;52.90;;;;;;5015669;28;20088;-63
2023/09/16 06:52:17;;;;;;;4.80;3.08;;;22.80;49.80;;;;;;5019224;28;20436;-63
2023/09/16 06:54:42;;;;;;;5.07;2.95;;;22.60;52.60;;;;;;5016246;28;20441;-64
2023/09/16 06:57:08;;;;;;;3.38;2.42;;;22.80;51.20;;;;;;5015913;28;20029;-63
2023/09/16 06:59:33;;;;;;;3.88;2.83;;;23.80;52.50;;;;;;5016284;28;20485;-63
2023/09/16 07:01:59;;;;;;;6.20;3.42;;;24.20;43.90;;;;;;5017188;28;20034;-64
2023/09/16 07:04:27;;;;;;;6.68;3.33;;;24.20;45.10;;;;;;5023121;28;20041;-64
2023/09/16 07:06:53;;;;;;;3.22;2.72;;;24.10;41.90;;;;;;5015140;28;20484;-63
2023/09/16 07:09:18;;;;;;;5.50;3.00;;;24.20;48.10;;;;;;5016955;28;20032;-63
2023/09/16 07:11:44;;;;;;;5.22;2.97;;;24.40;46.40;;;;;;5017605;28;20036;-64
2023/09/16 07:14:09;;;;;;;6.28;3.42;;;24.20;47.50;;;;;;5004823;28;20079;-63
2023/09/16 07:16:38;;;;;;;5.85;2.90;;;22.90;44.50;;;;;;5017671;28;20478;-64
2023/09/16 07:19:04;;;;;;;6.03;2.53;;;23.40;43.90;;;;;;5013352;28;20090;-63
2023/09/16 07:21:31;;;;;;;4.28;2.85;;;23.50;47.10;;;;;;5018847;28;20052;-64
2023/09/16 07:24:00;;;;;;;4.43;3.25;;;24.10;48.60;;;;;;5016523;28;20520;-63
2023/09/16 07:26:27;;;;;;;3.85;3.20;;;24.20;44.40;;;;;;5022236;28;20614;-64
2023/09/16 07:28:52;;;;;;;4.93;3.33;;;23.40;46.80;;;;;;5014963;28;20029;-63
2023/09/16 07:31:18;;;;;;;6.28;4.10;;;22.80;48.10;;;;;;5017188;28;20037;-63
2023/09/16 07:33:43;;;;;;;4.10;2.78;;;22.30;47.70;;;;;;5012114;28;20033;-62
2023/09/16 07:36:09;;;;;;;4.15;3.03;;;22.50;49.60;;;;;;5018564;28;20389;-62
2023/09/16 07:38:34;;;;;;;5.03;3.22;;;22.90;49.70;;;;;;5016861;28;20140;-63
2023/09/16 07:40:59;;;;;;;8.85;3.30;;;22.90;48.40;;;;;;5019690;28;20034;-62
2023/09/16 07:43:25;;;;;;;4.88;3.17;;;23.10;46.40;;;;;;5017811;28;20557;-63
2023/09/16 07:45:51;;;;;;;5.65;3.10;;;23.30;46.80;;;;;;5014555;28;20037;-63
2023/09/16 07:48:17;;;;;;;5.03;3.20;;;23.40;49.00;;;;;;5017189;28;20029;-63
2023/09/16 07:50:42;;;;;;;4.93;3.25;;;23.50;46.40;;;;;;5015250;28;20113;-62
2023/09/16 07:53:08;;;;;;;4.93;3.20;;;23.10;49.00;;;;;;5016805;28;20536;-63
2023/09/16 07:55:33;;;;;;;5.80;3.55;;;23.10;49.90;;;;;;5014961;28;20022;-63
2023/09/16 07:57:59;;;;;;;5.85;3.45;;;23.20;48.70;;;;;;5021354;28;20029;-63
2023/09/16 08:00:24;;;;;;;6.38;3.25;;;22.90;48.30;;;;;;5014221;28;20034;-63
2023/09/16 08:02:50;;;;;;;6.05;3.30;;;22.80;48.70;;;;;;5018067;28;20041;-62
2023/09/16 08:05:15;;;;;;;6.15;3.47;;;22.80;49.20;;;;;;5017651;28;20029;-62
2023/09/16 08:07:41;;;;;;;4.05;3.25;;;22.70;48.90;;;;;;5015727;28;20029;-63
2023/09/16 08:10:07;;;;;;;4.07;3.15;;;22.80;50.40;;;;;;5015000;28;20922;-63
2023/09/16 08:12:32;;;;;;;5.20;3.00;;;23.20;50.20;;;;;;5016063;28;20021;-63
2023/09/16 08:14:58;;;;;;;6.85;3.72;;;23.50;49.40;;;;;;5016912;28;20575;-63
2023/09/16 08:17:24;;;;;;;4.90;3.78;;;23.70;47.80;;;;;;5013460;28;20076;-62
2023/09/16 08:19:49;;;;;;;5.03;3.17;;;23.00;45.80;;;;;;5017842;28;20029;-62
2023/09/16 08:22:15;;;;;;;3.97;3.00;;;22.80;50.00;;;;;;5015122;28;20080;-63
2023/09/16 08:24:40;;;;;;;4.88;3.20;;;23.20;49.60;;;;;;5016883;28;20057;-62
2023/09/16 08:27:06;;;;;;;5.22;2.90;;;23.60;49.40;;;;;;5018306;28;20058;-62
2023/09/16 08:29:31;;;;;;;7.50;3.63;;;24.00;48.20;;;;;;5022343;28;20025;-63
2023/09/16 08:31:57;;;;;;;7.90;4.47;;;24.00;48.10;;;;;;5014039;28;20048;-63
2023/09/16 08:34:22;;;;;;;5.32;3.33;;;23.50;48.10;;;;;;5016795;28;20033;-62
2023/09/16 08:36:48;;;;;;;4.68;2.88;;;23.80;48.60;;;;;;5012690;28;20044;-63
2023/09/16 08:39:13;;;;;;;4.63;3.30;;;24.00;47.40;;;;;;5018439;28;20053;-63
2023/09/16 08:41:53;;;;;;;5.47;3.60;;;24.00;46.70;;;;;;5012469;28;20037;-52
2023/09/16 08:44:23;;;;;;;4.78;3.58;;;24.00;45.40;;;;;;5012462;28;20061;-58
2023/09/16 08:46:55;;;;;;;4.20;3.28;;;23.80;45.80;;;;;;5016598;28;20040;-48
2023/09/16 08:49:24;;;;;;;4.22;3.22;;;23.80;47.40;;;;;;5017461;28;20053;-51
2023/09/16 08:51:52;;;;;;;4.43;3.42;;;24.00;47.20;;;;;;5019659;28;20078;-50
2023/09/16 08:54:21;;;;;;;6.43;3.30;;;23.90;46.00;;;;;;5012327;28;20426;-54
2023/09/16 08:56:48;;;;;;;4.90;3.30;;;23.70;45.90;;;;;;5016466;28;20057;-48
2023/09/16 08:59:14;;;;;;;5.22;3.55;;;23.40;47.80;;;;;;5014257;28;20725;-49
2023/09/16 09:01:42;;;;;;;4.75;2.90;;;23.40;48.20;;;;;;5013275;28;20034;-50
2023/09/16 09:04:09;;;;;;;4.22;2.95;;;23.80;47.90;;;;;;5015381;28;20030;-49
2023/09/16 09:06:36;;;;;;;4.45;3.33;;;24.20;47.20;;;;;;5011989;28;20033;-51
2023/09/16 09:09:02;;;;;;;7.97;4.03;;;24.20;46.20;;;;;;5015198;28;20026;-51
2023/09/16 09:11:31;;;;;;;7.40;3.33;;;24.00;46.30;;;;;;5019439;28;20048;-48
2023/09/16 09:13:57;;;;;;;4.85;3.38;;;23.70;47.40;;;;;;5014121;28;20025;-50
2023/09/16 09:16:23;;;;;;;7.63;3.20;;;23.90;47.20;;;;;;5012657;28;20033;-49
2023/09/16 09:18:52;;;;;;;4.25;2.90;;;23.90;46.50;;;;;;5016466;28;20033;-48
2023/09/16 09:21:17;;;;;;;7.28;3.13;;;23.80;46.90;;;;;;5013447;28;20029;-54
2023/09/16 09:23:43;;;;;;;4.75;3.42;;;24.00;47.00;;;;;;5013861;28;20038;-51
2023/09/16 09:26:10;;;;;;;4.88;3.25;;;24.00;46.80;;;;;;5014427;28;20025;-51
2023/09/16 09:28:36;;;;;;;4.53;3.33;;;24.20;46.10;;;;;;5015433;28;20024;-53
2023/09/16 09:31:02;;;;;;;5.55;3.42;;;24.20;45.60;;;;;;5016472;28;20041;-49
2023/09/16 09:33:28;;;;;;;4.45;3.47;;;23.80;46.50;;;;;;5010643;28;20060;-53
2023/09/16 09:36:30;;;;;;;5.13;3.63;;;23.80;47.10;;;;;;5016749;28;20056;-52
2023/09/16 09:38:57;;;;;;;5.65;3.05;;;23.60;46.40;;;;;;5006911;28;20032;-55
2023/09/16 09:41:22;;;;;;;8.98;3.45;;;23.50;47.60;;;;;;5013049;28;20025;-53
2023/09/16 09:43:52;;;;;;;5.50;3.33;;;23.50;46.90;;;;;;5016314;28;20128;-54
2023/09/16 09:46:18;;;;;;;5.93;3.35;;;23.80;46.40;;;;;;5013673;28;20034;-53
2023/09/16 09:48:44;;;;;;;4.55;3.38;;;24.00;45.90;;;;;;5015212;28;20033;-53
2023/09/16 09:51:09;;;;;;;6.03;3.47;;;24.10;45.40;;;;;;5012052;28;20025;-52
2023/09/16 09:53:36;;;;;;;6.82;4.05;;;23.80;47.20;;;;;;5015024;28;20033;-50
2023/09/16 09:56:01;;;;;;;4.93;2.92;;;23.70;45.70;;;;;;5013503;28;20021;-54
2023/09/16 09:58:28;;;;;;;5.95;3.53;;;23.70;46.70;;;;;;5012049;28;20030;-54
2023/09/16 10:00:55;;;;;;;6.18;3.30;;;23.60;46.80;;;;;;5013041;28;20112;-52
2023/09/16 10:03:22;;;;;;;5.80;3.70;;;23.90;46.60;;;;;;5013450;28;20401;-54
2023/09/16 10:05:48;;;;;;;3.92;3.05;;;24.10;45.80;;;;;;5014904;28;20049;-51
2023/09/16 10:08:14;;;;;;;7.15;3.30;;;23.90;45.90;;;;;;5014520;28;20057;-52
2023/09/16 10:10:40;;;;;;;5.65;3.40;;;23.80;46.50;;;;;;5013668;28;20025;-55
2023/09/16 10:13:07;;;;;;;5.53;3.55;;;23.80;46.10;;;;;;5012684;28;20034;-51
2023/09/16 10:15:37;;;;;;;6.07;3.40;;;24.00;45.90;;;;;;5009619;28;20045;-53
2023/09/16 10:18:03;;;;;;;4.97;3.50;;;24.00;46.20;;;;;;5017649;28;20049;-52
2023/09/16 10:20:31;;;;;;;5.95;3.58;;;24.00;47.00;;;;;;5016020;28;20072;-55
2023/09/16 10:22:58;;;;;;;6.03;3.55;;;23.70;46.10;;;;;;5010342;28;20792;-52
2023/09/16 10:25:23;;;;;;;4.22;2.80;;;23.60;46.30;;;;;;5013674;28;20033;-55
2023/09/16 10:28:00;;;;;;;6.10;3.15;;;23.30;47.00;;;;;;5013840;28;20074;-51
2023/09/16 10:30:27;;;;;;;4.30;3.17;;;23.40;47.30;;;;;;5011801;28;20136;-51
2023/09/16 10:32:53;;;;;;;3.78;2.88;;;23.40;46.90;;;;;;5013560;28;20409;-50
2023/09/16 10:35:20;;;;;;;4.07;2.90;;;23.30;46.60;;;;;;5018063;28;20030;-51
2023/09/16 10:37:48;;;;;;;4.97;3.42;;;23.20;48.30;;;;;;5028089;28;20053;-51
2023/09/16 10:40:15;;;;;;;5.95;3.50;;;23.10;48.60;;;;;;5011691;28;20026;-54
2023/09/16 10:42:44;;;;;;;5.25;3.20;;;23.10;48.50;;;;;;5016138;28;20025;-53
2023/09/16 10:45:13;;;;;;;5.18;3.20;;;23.10;48.40;;;;;;5025276;28;20022;-53
2023/09/16 10:47:39;;;;;;;4.72;3.33;;;23.10;48.50;;;;;;5013572;28;20037;-52
2023/09/16 10:50:05;;;;;;;5.88;3.03;;;23.10;49.10;;;;;;5012373;28;20050;-49
2023/09/16 10:52:44;;;;;;;4.35;3.35;;;23.10;48.10;;;;;;5016072;28;20065;-52
2023/09/16 10:55:52;;;;;;;4.22;3.40;;;23.00;49.50;;;;;;5017823;28;20108;-49
2023/09/16 10:58:38;;;;;;;3.50;2.97;;;22.80;50.50;;;;;;5010907;28;20037;-51
2023/09/16 11:01:06;;;;;;;7.05;3.25;;;22.80;52.40;;;;;;5019087;28;20116;-48
2023/09/16 11:03:33;;;;;;;5.97;3.20;;;22.70;50.50;;;;;;5019055;28;20040;-46
2023/09/16 11:06:04;;;;;;;4.80;2.97;;;22.70;50.40;;;;;;5019242;28;20529;-48
2023/09/16 11:08:29;;;;;;;4.95;3.47;;;22.80;50.00;;;;;;5018478;28;20025;-51
2023/09/16 11:10:58;;;;;;;5.50;3.33;;;22.70;48.70;;;;;;5010813;28;20032;-49
2023/09/16 11:13:26;;;;;;;6.72;3.17;;;22.70;49.50;;;;;;5009225;28;20513;-53
2023/09/16 11:15:52;;;;;;;3.42;2.90;;;22.70;49.40;;;;;;5015081;28;20354;-53
2023/09/16 11:18:19;;;;;;;3.70;2.70;;;22.80;49.20;;;;;;5014451;28;20029;-49
2023/09/16 11:20:46;;;;;;;5.97;3.10;;;22.90;48.70;;;;;;5011954;28;20039;-49
2023/09/16 11:23:12;;;;;;;5.07;3.33;;;23.00;48.90;;;;;;5017424;28;20574;-51
2023/09/16 11:25:40;;;;;;;5.05;3.08;;;23.00;49.90;;;;;;5020818;28;20029;-50
2023/09/16 11:28:09;;;;;;;6.28;3.13;;;23.00;48.80;;;;;;5020453;28;20444;-51
2023/09/16 11:30:36;;;;;;;3.10;2.80;;;23.10;49.50;;;;;;5015415;28;20041;-53
2023/09/16 11:33:02;;;;;;;3.63;2.92;;;23.10;49.50;;;;;;5003727;28;21326;-50
2023/09/16 11:35:28;;;;;;;5.55;3.42;;;23.20;49.00;;;;;;5007012;28;20383;-48
2023/09/16 11:37:54;;;;;;;6.55;3.50;;;23.20;49.00;;;;;;5011187;28;20044;-54
2023/09/16 11:40:32;;;;;;;4.03;3.20;;;23.10;49.00;;;;;;5006604;28;20738;-54
2023/09/16 11:42:58;;;;;;;5.78;3.10;;;23.10;48.40;;;;;;5015679;28;20573;-51
2023/09/16 11:45:24;;;;;;;3.92;3.08;;;23.10;49.00;;;;;;5017165;28;20032;-54
2023/09/16 11:47:50;;;;;;;4.50;3.13;;;23.10;49.00;;;;;;5008632;28;20025;-50
2023/09/16 11:50:20;;;;;;;4.78;3.35;;;23.10;49.20;;;;;;5005607;28;20052;-48
2023/09/16 11:52:46;;;;;;;3.65;3.00;;;23.20;49.50;;;;;;5011930;28;20052;-48
2023/09/16 11:55:11;;;;;;;4.95;3.35;;;23.30;48.80;;;;;;5018899;28;20045;-55
2023/09/16 11:57:38;;;;;;;3.50;2.85;;;23.20;49.30;;;;;;5011748;28;20030;-48
2023/09/16 12:00:04;;;;;;;5.22;3.45;;;23.30;48.70;;;;;;5015086;28;20025;-48
2023/09/16 12:02:30;;;;;;;3.97;3.45;;;23.40;48.40;;;;;;5014472;28;20648;-56
2023/09/16 12:04:55;;;;;;;3.10;2.75;;;23.40;48.30;;;;;;5008123;28;20029;-51
2023/09/16 12:07:24;;;;;;;4.50;2.50;;;23.40;48.60;;;;;;5019964;28;21008;-49
2023/09/16 12:09:51;;;;;;;3.97;2.88;;;23.40;48.40;;;;;;5028291;28;20497;-50
2023/09/16 12:12:16;;;;;;;5.35;3.05;;;23.50;48.60;;;;;;5026794;28;20032;-52
2023/09/16 12:14:42;;;;;;;4.25;3.03;;;23.50;48.70;;;;;;5008680;28;20040;-49
2023/09/16 12:17:09;;;;;;;3.25;2.88;;;23.50;48.20;;;;;;5007441;28;20421;-51
2023/09/16 12:19:34;;;;;;;4.53;3.15;;;23.40;48.10;;;;;;5006294;28;20441;-49
2023/09/16 12:22:00;;;;;;;4.28;3.47;;;23.40;48.30;;;;;;5017145;28;20075;-50
2023/09/16 12:24:27;;;;;;;4.15;2.90;;;23.50;48.40;;;;;;5016524;28;20092;-52
2023/09/16 12:26:53;;;;;;;7.65;3.28;;;23.40;48.10;;;;;;5017666;28;20528;-51
2023/09/16 12:29:19;;;;;;;4.28;3.05;;;23.40;48.90;;;;;;5017202;28;20033;-51
2023/09/16 12:31:45;;;;;;;4.55;3.28;;;23.40;48.80;;;;;;5017152;28;20029;-51
2023/09/16 12:34:18;;;;;;;3.38;2.88;;;23.50;49.10;;;;;;5015674;28;20064;-50
2023/09/16 12:36:48;;;;;;;6.25;3.13;;;23.50;49.30;;;;;;5014432;28;20028;-52
2023/09/16 12:39:14;;;;;;;4.85;2.92;;;23.50;48.50;;;;;;5014574;28;20030;-53
2023/09/16 12:41:40;;;;;;;4.95;3.38;;;23.50;49.00;;;;;;5015518;28;20026;-49
2023/09/16 12:44:06;;;;;;;7.55;3.38;;;23.50;48.70;;;;;;5018378;28;20025;-51
2023/09/16 12:46:31;;;;;;;4.72;3.30;;;23.60;49.30;;;;;;5013163;28;20113;-52